createdAt,value
2023-09-07T00:00:32.640Z,16.40
2023-09-07T00:03:01.348Z,16.30
2023-09-07T00:05:28.524Z,16.30
2023-09-07T00:07:55.467Z,16.20
2023-09-07T00:10:22.787Z,16.20
2023-09-07T00:12:49.921Z,16.10
2023-09-07T00:15:17.083Z,16.20
2023-09-07T00:17:44.048Z,16.10
2023-09-07T00:20:20.608Z,16.10
2023-09-07T00:22:47.514Z,16.10
2023-09-07T00:25:14.873Z,16.10
2023-09-07T00:27:42.083Z,16.10
2023-09-07T00:30:10.676Z,16.00
2023-09-07T00:32:39.076Z,16.10
2023-09-07T00:35:06.972Z,16.00
2023-09-07T00:37:34.888Z,16.00
2023-09-07T00:40:01.975Z,16.00
2023-09-07T00:42:28.936Z,15.90
2023-09-07T00:44:55.887Z,15.90
2023-09-07T00:47:24.294Z,15.90
2023-09-07T00:49:51.689Z,15.80
2023-09-07T00:52:19.902Z,15.80
2023-09-07T00:54:47.002Z,15.80
2023-09-07T00:57:13.972Z,15.80
2023-09-07T00:59:40.928Z,15.90
2023-09-07T01:02:08.082Z,15.80
2023-09-07T01:04:35.280Z,15.70
2023-09-07T01:07:15.124Z,15.70
2023-09-07T01:09:43.104Z,15.60
2023-09-07T01:12:16.288Z,15.60
2023-09-07T01:14:43.964Z,15.50
2023-09-07T01:17:14.947Z,15.40
2023-09-07T01:19:42.116Z,15.40
2023-09-07T01:22:10.879Z,15.40
2023-09-07T01:24:40.085Z,15.30
2023-09-07T01:27:07.108Z,15.40
2023-09-07T01:29:35.065Z,15.30
2023-09-07T01:32:02.182Z,15.30
2023-09-07T01:34:29.426Z,15.40
2023-09-07T01:36:56.468Z,15.30
2023-09-07T01:39:23.862Z,15.20
2023-09-07T01:41:50.968Z,15.20
2023-09-07T01:44:17.857Z,15.10
2023-09-07T01:46:44.882Z,15.10
2023-09-07T01:49:11.939Z,15.10
2023-09-07T01:51:38.976Z,15.10
2023-09-07T01:54:06.727Z,15.00
2023-09-07T01:56:33.777Z,15.00
2023-09-07T01:59:00.734Z,15.00
2023-09-07T02:01:31.285Z,15.00
2023-09-07T02:03:58.708Z,15.10
2023-09-07T02:06:25.619Z,15.00
2023-09-07T02:08:52.592Z,15.00
2023-09-07T02:11:19.455Z,15.00
2023-09-07T02:13:48.165Z,14.90
2023-09-07T02:16:15.452Z,14.90
2023-09-07T02:18:48.253Z,14.80
2023-09-07T02:21:15.332Z,14.80
2023-09-07T02:23:42.397Z,14.80
2023-09-07T02:26:09.426Z,14.80
2023-09-07T02:28:36.326Z,14.80
2023-09-07T02:31:07.729Z,14.80
2023-09-07T02:33:34.989Z,14.80
2023-09-07T02:36:01.994Z,14.80
2023-09-07T02:38:31.898Z,14.80
2023-09-07T02:40:59.225Z,14.70
2023-09-07T02:43:26.200Z,14.60
2023-09-07T02:45:53.151Z,14.60
2023-09-07T02:48:20.324Z,14.50
2023-09-07T02:50:51.102Z,14.50
2023-09-07T02:53:18.369Z,14.50
2023-09-07T02:55:48.131Z,14.60
2023-09-07T02:58:15.179Z,14.60
2023-09-07T03:00:46.094Z,14.50
2023-09-07T03:03:13.790Z,14.50
2023-09-07T03:05:44.905Z,14.50
2023-09-07T03:08:11.983Z,14.50
2023-09-07T03:10:41.056Z,14.50
2023-09-07T03:13:11.084Z,14.50
2023-09-07T03:15:39.143Z,14.50
2023-09-07T03:18:06.129Z,14.50
2023-09-07T03:20:35.513Z,14.40
2023-09-07T03:23:03.006Z,14.40
2023-09-07T03:25:29.980Z,14.40
2023-09-07T03:27:56.947Z,14.30
2023-09-07T03:30:23.960Z,14.30
2023-09-07T03:32:51.069Z,14.30
2023-09-07T03:35:18.086Z,14.30
2023-09-07T03:37:45.007Z,14.30
2023-09-07T03:40:12.147Z,14.30
2023-09-07T03:42:40.339Z,14.20
2023-09-07T03:45:08.372Z,14.20
2023-09-07T03:47:35.361Z,14.20
2023-09-07T03:50:02.362Z,14.20
2023-09-07T03:52:29.338Z,14.20
2023-09-07T03:54:57.498Z,14.20
2023-09-07T03:57:25.462Z,14.20
2023-09-07T03:59:52.635Z,14.10
2023-09-07T04:02:19.872Z,14.10
2023-09-07T04:04:59.113Z,14.10
2023-09-07T04:07:26.193Z,14.10
2023-09-07T04:09:53.161Z,14.10
2023-09-07T04:12:20.127Z,14.10
2023-09-07T04:14:47.101Z,14.10
2023-09-07T04:17:14.057Z,14.10
2023-09-07T04:19:41.132Z,14.10
2023-09-07T04:22:08.101Z,14.10
2023-09-07T04:24:35.133Z,14.10
2023-09-07T04:27:03.296Z,14.10
2023-09-07T04:29:30.590Z,14.20
2023-09-07T04:31:58.237Z,14.20
2023-09-07T04:34:25.477Z,14.30
2023-09-07T04:36:52.652Z,14.40
2023-09-07T04:39:19.653Z,14.50
2023-09-07T04:41:46.590Z,14.60
2023-09-07T04:44:13.564Z,14.70
2023-09-07T04:46:40.638Z,14.70
2023-09-07T04:49:08.251Z,14.70
2023-09-07T04:51:35.182Z,14.80
2023-09-07T04:54:02.080Z,14.90
2023-09-07T04:56:30.303Z,15.00
2023-09-07T04:58:57.525Z,15.20
2023-09-07T05:01:25.434Z,15.40
2023-09-07T05:03:53.261Z,15.70
2023-09-07T05:06:20.466Z,16.00
2023-09-07T05:08:47.467Z,16.30
2023-09-07T05:11:14.449Z,16.70
2023-09-07T05:13:41.346Z,17.10
2023-09-07T05:16:08.354Z,17.50
2023-09-07T05:18:35.436Z,17.90
2023-09-07T05:21:04.525Z,18.30
2023-09-07T05:23:31.472Z,18.70
2023-09-07T05:25:58.351Z,19.10
2023-09-07T05:28:25.368Z,19.50
2023-09-07T05:30:52.507Z,19.80
2023-09-07T05:33:20.267Z,20.10
2023-09-07T05:35:47.309Z,20.50
2023-09-07T05:38:14.699Z,20.90
2023-09-07T05:40:45.062Z,21.20
2023-09-07T05:43:12.768Z,21.40
2023-09-07T05:45:43.369Z,21.60
2023-09-07T05:48:10.536Z,21.90
2023-09-07T05:50:39.189Z,22.30
2023-09-07T05:53:06.718Z,22.50
2023-09-07T05:55:33.886Z,22.80
2023-09-07T05:58:06.148Z,23.10
2023-09-07T06:00:33.310Z,23.40
2023-09-07T06:03:00.575Z,23.70
2023-09-07T06:05:27.599Z,23.90
2023-09-07T06:07:54.549Z,24.00
2023-09-07T06:10:21.573Z,24.20
2023-09-07T06:12:48.457Z,24.50
2023-09-07T06:15:15.512Z,24.70
2023-09-07T06:17:42.485Z,25.00
2023-09-07T06:20:10.348Z,25.20
2023-09-07T06:22:37.277Z,25.40
2023-09-07T06:25:04.438Z,25.70
2023-09-07T06:27:31.417Z,25.90
2023-09-07T06:29:58.315Z,26.10
2023-09-07T06:32:25.342Z,26.30
2023-09-07T06:34:53.240Z,26.50
2023-09-07T06:37:20.395Z,26.80
2023-09-07T06:39:47.337Z,27.10
2023-09-07T06:42:16.978Z,27.20
2023-09-07T06:44:44.184Z,27.20
2023-09-07T06:47:11.214Z,27.10
2023-09-07T06:49:40.984Z,26.90
2023-09-07T06:52:08.073Z,26.60
2023-09-07T06:54:35.267Z,26.60
2023-09-07T06:57:02.291Z,26.90
2023-09-07T06:59:29.233Z,26.90
2023-09-07T07:01:56.210Z,27.00
2023-09-07T07:04:23.302Z,27.10
2023-09-07T07:06:50.397Z,27.30
2023-09-07T07:09:17.888Z,27.80
2023-09-07T07:11:44.776Z,27.80
2023-09-07T07:14:13.081Z,27.70
2023-09-07T07:16:40.050Z,27.60
2023-09-07T07:19:07.070Z,27.40
2023-09-07T07:21:33.969Z,27.30
2023-09-07T07:24:00.878Z,27.50
2023-09-07T07:26:27.760Z,27.70
2023-09-07T07:28:54.711Z,27.70
2023-09-07T07:31:21.767Z,27.90
2023-09-07T07:33:51.485Z,27.70
2023-09-07T07:36:18.485Z,27.50
2023-09-07T07:38:45.447Z,27.50
2023-09-07T07:41:12.375Z,27.70
2023-09-07T07:43:39.379Z,27.80
2023-09-07T07:46:06.510Z,28.00
2023-09-07T07:48:35.276Z,28.50
2023-09-07T07:51:07.824Z,28.30
2023-09-07T07:53:36.558Z,28.10
2023-09-07T07:56:04.576Z,28.30
2023-09-07T07:58:31.601Z,28.20
2023-09-07T08:01:00.155Z,28.70
2023-09-07T08:03:27.378Z,28.50
2023-09-07T08:05:54.400Z,28.60
2023-09-07T08:08:21.339Z,29.00
2023-09-07T08:10:48.370Z,29.10
2023-09-07T08:13:15.371Z,29.20
2023-09-07T08:15:42.581Z,29.60
2023-09-07T08:18:10.437Z,29.60
2023-09-07T08:20:38.665Z,29.30
2023-09-07T08:23:08.516Z,29.50
2023-09-07T08:25:36.004Z,29.40
2023-09-07T08:28:06.388Z,29.60
2023-09-07T08:30:35.426Z,30.00
2023-09-07T08:33:03.601Z,30.20
2023-09-07T08:35:31.830Z,30.00
2023-09-07T08:37:59.958Z,30.10
2023-09-07T08:40:28.806Z,30.20
2023-09-07T08:42:56.012Z,30.30
2023-09-07T08:45:29.892Z,30.60
2023-09-07T08:47:58.323Z,30.50
2023-09-07T08:50:26.086Z,30.70
2023-09-07T08:52:54.365Z,30.90
2023-09-07T08:55:23.156Z,30.80
2023-09-07T08:57:50.164Z,30.80
2023-09-07T09:00:18.038Z,31.20
2023-09-07T09:02:56.139Z,31.50
2023-09-07T09:05:26.339Z,31.90
2023-09-07T09:08:04.043Z,32.20
2023-09-07T09:10:31.326Z,32.50
2023-09-07T09:13:00.866Z,32.30
2023-09-07T09:15:30.768Z,32.10
2023-09-07T09:17:57.814Z,31.90
2023-09-07T09:20:26.209Z,32.10
2023-09-07T09:22:54.755Z,32.20
2023-09-07T09:25:22.398Z,31.60
2023-09-07T09:27:49.437Z,31.50
2023-09-07T09:30:17.431Z,31.10
2023-09-07T09:32:45.348Z,31.20
2023-09-07T09:35:12.443Z,31.00
2023-09-07T09:37:52.406Z,31.40
2023-09-07T09:40:20.030Z,31.90
2023-09-07T09:42:47.447Z,31.90
2023-09-07T09:45:14.517Z,31.90
2023-09-07T09:47:44.601Z,31.70
2023-09-07T09:50:12.901Z,31.40
2023-09-07T09:52:40.117Z,31.20
2023-09-07T09:55:09.645Z,30.90
2023-09-07T09:57:37.583Z,30.80
2023-09-07T10:00:21.078Z,30.70
2023-09-07T10:02:52.633Z,30.20
2023-09-07T10:05:20.527Z,30.30
2023-09-07T10:07:53.665Z,30.40
2023-09-07T10:10:21.222Z,30.20
2023-09-07T10:12:55.072Z,30.20
2023-09-07T10:15:23.772Z,30.00
2023-09-07T10:17:51.547Z,29.60
2023-09-07T10:20:24.865Z,29.10
2023-09-07T10:22:51.798Z,29.20
2023-09-07T10:25:23.526Z,29.10
2023-09-07T10:27:50.690Z,29.20
2023-09-07T10:30:20.602Z,29.40
2023-09-07T10:32:47.913Z,29.60
2023-09-07T10:35:19.690Z,29.50
2023-09-07T10:37:50.240Z,29.30
2023-09-07T10:40:22.601Z,29.00
2023-09-07T10:42:49.783Z,28.80
2023-09-07T10:45:18.196Z,28.60
2023-09-07T10:47:47.130Z,28.60
2023-09-07T10:50:14.726Z,28.80
2023-09-07T10:52:44.860Z,29.00
2023-09-07T10:55:13.930Z,29.00
2023-09-07T10:57:45.911Z,28.90
2023-09-07T11:00:14.738Z,28.80
2023-09-07T11:02:44.880Z,28.60
2023-09-07T11:05:13.313Z,28.70
2023-09-07T11:07:42.062Z,28.60
2023-09-07T11:10:09.691Z,28.60
2023-09-07T11:12:40.842Z,28.60
2023-09-07T11:15:11.976Z,28.40
2023-09-07T11:17:41.187Z,28.30
2023-09-07T11:20:09.089Z,28.10
2023-09-07T11:22:48.846Z,28.10
2023-09-07T11:25:26.450Z,28.20
2023-09-07T11:27:58.802Z,28.20
2023-09-07T11:30:25.890Z,28.20
2023-09-07T11:33:05.858Z,28.20
2023-09-07T11:35:33.767Z,28.10
2023-09-07T11:38:02.154Z,27.90
2023-09-07T11:40:29.112Z,27.80
2023-09-07T11:42:56.105Z,27.80
2023-09-07T11:45:23.230Z,27.90
2023-09-07T11:47:50.243Z,28.00
2023-09-07T11:50:19.204Z,27.90
2023-09-07T11:52:46.548Z,27.80
2023-09-07T11:55:16.247Z,27.80
2023-09-07T11:57:44.052Z,27.70
2023-09-07T12:00:12.152Z,27.70
2023-09-07T12:02:40.583Z,27.60
2023-09-07T12:05:11.050Z,27.60
2023-09-07T12:07:38.300Z,27.60
2023-09-07T12:10:05.772Z,27.70
2023-09-07T12:12:32.688Z,27.80
2023-09-07T12:15:00.805Z,27.80
2023-09-07T12:17:27.866Z,27.60
2023-09-07T12:19:54.984Z,27.40
2023-09-07T12:22:21.936Z,27.50
2023-09-07T12:24:58.697Z,27.60
2023-09-07T12:27:36.862Z,27.60
2023-09-07T12:30:13.533Z,27.70
2023-09-07T12:32:41.447Z,27.80
2023-09-07T12:35:09.693Z,27.90
2023-09-07T12:37:37.436Z,27.80
2023-09-07T12:40:12.785Z,27.80
2023-09-07T12:42:47.230Z,27.80
2023-09-07T12:45:16.284Z,27.80
2023-09-07T12:47:43.462Z,27.70
2023-09-07T12:50:10.570Z,27.70
2023-09-07T12:52:38.758Z,27.80
2023-09-07T12:55:07.452Z,27.80
2023-09-07T12:57:35.918Z,27.70
2023-09-07T13:00:07.380Z,27.70
2023-09-07T13:02:34.494Z,27.70
2023-09-07T13:05:01.524Z,27.50
2023-09-07T13:07:28.461Z,27.40
2023-09-07T13:09:56.409Z,27.40
2023-09-07T13:12:23.393Z,27.60
2023-09-07T13:14:50.351Z,27.80
2023-09-07T13:17:17.373Z,27.80
2023-09-07T13:19:45.194Z,27.80
2023-09-07T13:22:12.428Z,27.80
2023-09-07T13:24:39.425Z,27.80
2023-09-07T13:27:06.609Z,27.80
2023-09-07T13:29:34.176Z,27.80
2023-09-07T13:32:01.518Z,27.90
2023-09-07T13:34:29.083Z,27.90
2023-09-07T13:36:56.791Z,27.80
2023-09-07T13:39:24.124Z,27.80
2023-09-07T13:41:51.015Z,27.80
2023-09-07T13:44:18.337Z,27.70
2023-09-07T13:46:45.992Z,27.70
2023-09-07T13:49:13.745Z,27.70
2023-09-07T13:51:43.818Z,27.80
2023-09-07T13:54:11.046Z,27.80
2023-09-07T13:56:38.309Z,27.80
2023-09-07T13:59:05.927Z,27.70
2023-09-07T14:01:33.340Z,27.70
2023-09-07T14:04:01.040Z,27.70
2023-09-07T14:06:28.157Z,27.80
2023-09-07T14:08:55.090Z,27.70
2023-09-07T14:11:23.889Z,27.70
2023-09-07T14:13:54.560Z,27.70
2023-09-07T14:16:22.748Z,27.70
2023-09-07T14:18:50.264Z,27.60
2023-09-07T14:21:18.146Z,27.60
2023-09-07T14:23:45.821Z,27.50
2023-09-07T14:26:12.751Z,27.50
2023-09-07T14:28:40.622Z,27.50
2023-09-07T14:31:09.170Z,27.50
2023-09-07T14:33:40.269Z,27.50
2023-09-07T14:36:08.441Z,27.50
2023-09-07T14:38:42.091Z,27.50
2023-09-07T14:41:13.293Z,27.40
2023-09-07T14:43:40.299Z,27.50
2023-09-07T14:46:07.446Z,27.50
2023-09-07T14:48:34.429Z,27.50
2023-09-07T14:51:01.713Z,27.50
2023-09-07T14:53:28.710Z,27.40
2023-09-07T14:55:57.805Z,27.30
2023-09-07T14:58:25.061Z,27.40
2023-09-07T15:00:52.229Z,27.40
2023-09-07T15:03:19.654Z,27.40
2023-09-07T15:05:46.651Z,27.30
2023-09-07T15:08:13.952Z,27.40
2023-09-07T15:10:41.136Z,27.30
2023-09-07T15:13:09.469Z,27.30
2023-09-07T15:15:41.256Z,27.30
2023-09-07T15:18:09.280Z,27.30
2023-09-07T15:20:37.383Z,27.30
2023-09-07T15:23:04.849Z,27.20
2023-09-07T15:25:32.522Z,27.20
2023-09-07T15:27:59.710Z,27.20
2023-09-07T15:30:26.922Z,27.20
2023-09-07T15:32:54.312Z,27.20
2023-09-07T15:35:21.358Z,27.20
2023-09-07T15:37:48.383Z,27.20
2023-09-07T15:40:16.005Z,27.10
2023-09-07T15:42:43.643Z,27.10
2023-09-07T15:45:11.730Z,27.00
2023-09-07T15:47:39.251Z,27.00
2023-09-07T15:50:08.733Z,27.00
2023-09-07T15:52:47.578Z,27.00
2023-09-07T15:55:16.159Z,26.90
2023-09-07T15:57:47.249Z,26.90
2023-09-07T16:00:15.560Z,26.90
2023-09-07T16:02:43.122Z,26.80
2023-09-07T16:05:11.065Z,26.80
2023-09-07T16:07:38.586Z,26.80
2023-09-07T16:10:07.236Z,26.70
2023-09-07T16:12:34.749Z,26.70
2023-09-07T16:15:02.262Z,26.60
2023-09-07T16:17:29.848Z,26.60
2023-09-07T16:19:57.671Z,26.60
2023-09-07T16:22:24.905Z,26.50
2023-09-07T16:24:52.453Z,26.40
2023-09-07T16:27:19.877Z,26.50
2023-09-07T16:29:47.535Z,26.40
2023-09-07T16:32:15.591Z,26.40
2023-09-07T16:34:43.128Z,26.30
2023-09-07T16:37:10.792Z,26.30
2023-09-07T16:39:38.252Z,26.20
2023-09-07T16:42:05.559Z,26.20
2023-09-07T16:44:32.522Z,26.10
2023-09-07T16:46:59.546Z,26.00
2023-09-07T16:49:26.845Z,25.90
2023-09-07T16:51:54.290Z,25.80
2023-09-07T16:54:21.878Z,25.80
2023-09-07T16:56:50.816Z,25.70
2023-09-07T17:01:49.178Z,25.40
2023-09-07T17:04:25.926Z,25.20
2023-09-07T17:07:02.180Z,24.90
2023-09-07T17:09:34.930Z,24.70
2023-09-07T17:12:02.733Z,24.40
2023-09-07T17:14:30.772Z,24.20
2023-09-07T17:16:58.192Z,23.90
2023-09-07T17:19:26.319Z,23.80
2023-09-07T17:21:54.282Z,23.60
2023-09-07T17:24:22.001Z,23.40
2023-09-07T17:26:49.593Z,23.20
2023-09-07T17:29:17.550Z,23.10
2023-09-07T17:31:44.508Z,22.90
2023-09-07T17:34:12.146Z,22.70
2023-09-07T17:36:40.010Z,22.60
2023-09-07T17:39:08.009Z,22.50
2023-09-07T17:41:39.500Z,22.40
2023-09-07T17:44:07.549Z,22.30
2023-09-07T17:46:35.347Z,22.10
2023-09-07T17:49:02.704Z,22.00
2023-09-07T17:51:30.069Z,21.90
2023-09-07T17:53:57.374Z,21.80
2023-09-07T17:56:24.773Z,21.70
2023-09-07T17:58:52.649Z,21.60
2023-09-07T18:01:20.301Z,21.50
2023-09-07T18:03:48.436Z,21.40
2023-09-07T18:06:16.515Z,21.40
2023-09-07T18:08:44.125Z,21.30
2023-09-07T18:11:12.341Z,21.20
2023-09-07T18:13:40.057Z,21.20
2023-09-07T18:16:07.300Z,21.10
2023-09-07T18:18:36.193Z,21.00
2023-09-07T18:21:08.702Z,21.00
2023-09-07T18:23:36.901Z,20.90
2023-09-07T18:26:04.661Z,20.80
2023-09-07T18:28:34.848Z,20.80
2023-09-07T18:31:03.423Z,20.70
2023-09-07T18:33:30.891Z,20.60
2023-09-07T18:36:08.684Z,20.60
2023-09-07T18:38:38.018Z,20.60
2023-09-07T18:41:05.836Z,20.50
2023-09-07T18:43:40.070Z,20.50
2023-09-07T18:46:10.390Z,20.40
2023-09-07T18:48:38.642Z,20.40
2023-09-07T18:51:09.752Z,20.40
2023-09-07T18:53:38.193Z,20.40
2023-09-07T18:56:06.812Z,20.30
2023-09-07T18:58:34.759Z,20.20
2023-09-07T19:01:16.660Z,20.10
2023-09-07T19:03:52.286Z,20.00
2023-09-07T19:06:22.470Z,19.90
2023-09-07T19:08:50.259Z,19.80
2023-09-07T19:11:17.871Z,19.80
2023-09-07T19:13:45.782Z,19.80
2023-09-07T19:16:16.680Z,19.80
2023-09-07T19:18:44.389Z,19.70
2023-09-07T19:21:23.096Z,19.60
2023-09-07T19:23:53.678Z,19.50
2023-09-07T19:26:40.609Z,19.60
2023-09-07T19:29:10.826Z,19.50
2023-09-07T19:31:40.780Z,19.40
2023-09-07T19:34:28.850Z,19.30
2023-09-07T19:36:56.874Z,19.30
2023-09-07T19:39:25.562Z,19.30
2023-09-07T19:41:53.516Z,19.30
2023-09-07T19:44:24.567Z,19.20
2023-09-07T19:46:54.758Z,19.20
2023-09-07T19:49:22.598Z,19.10
2023-09-07T19:51:50.815Z,19.10
2023-09-07T19:54:19.119Z,19.10
2023-09-07T19:56:47.021Z,19.10
2023-09-07T19:59:14.948Z,19.10
2023-09-07T20:02:01.422Z,19.10
2023-09-07T20:04:31.437Z,19.40
2023-09-07T20:07:00.976Z,19.10
2023-09-07T20:09:28.710Z,19.00
2023-09-07T20:11:56.210Z,18.90
2023-09-07T20:14:23.770Z,18.90
2023-09-07T20:16:54.828Z,18.80
2023-09-07T20:19:22.337Z,18.80
2023-09-07T20:21:49.639Z,18.80
2023-09-07T20:24:17.504Z,18.70
2023-09-07T20:26:44.536Z,18.80
2023-09-07T20:29:12.419Z,18.80
2023-09-07T20:31:39.416Z,18.70
2023-09-07T20:34:07.041Z,18.70
2023-09-07T20:36:35.818Z,18.60
2023-09-07T20:39:06.358Z,18.60
2023-09-07T20:41:33.890Z,18.60
2023-09-07T20:44:01.252Z,18.60
2023-09-07T20:46:28.835Z,18.50
2023-09-07T20:48:56.294Z,18.50
2023-09-07T20:51:24.232Z,18.50
2023-09-07T20:53:51.825Z,18.50
2023-09-07T20:56:19.358Z,18.50
2023-09-07T20:58:46.730Z,18.50
2023-09-07T21:01:14.256Z,18.40
2023-09-07T21:03:41.401Z,18.40
2023-09-07T21:06:08.416Z,18.30
2023-09-07T21:08:35.510Z,18.20
2023-09-07T21:11:02.915Z,18.20
2023-09-07T21:13:29.828Z,18.20
2023-09-07T21:15:57.329Z,18.20
2023-09-07T21:18:24.289Z,18.10
2023-09-07T21:20:51.225Z,18.10
2023-09-07T21:23:18.151Z,18.10
2023-09-07T21:25:45.133Z,18.10
2023-09-07T21:28:12.079Z,18.20
2023-09-07T21:30:39.097Z,18.20
2023-09-07T21:33:06.244Z,18.20
2023-09-07T21:35:33.265Z,18.10
2023-09-07T21:38:01.660Z,18.10
2023-09-07T21:40:28.748Z,18.10
2023-09-07T21:42:56.335Z,18.10
2023-09-07T21:45:23.424Z,18.10
2023-09-07T21:47:50.396Z,18.10
2023-09-07T21:50:17.411Z,18.10
2023-09-07T21:52:44.511Z,18.10
2023-09-07T21:55:11.531Z,18.20
2023-09-07T21:57:38.523Z,18.20
2023-09-07T22:00:12.470Z,18.30
2023-09-07T22:02:39.958Z,18.30
2023-09-07T22:05:07.328Z,18.40
2023-09-07T22:07:34.707Z,18.40
2023-09-07T22:10:01.925Z,18.40
2023-09-07T22:12:28.830Z,18.40
2023-09-07T22:14:56.128Z,18.40
2023-09-07T22:17:23.102Z,18.40
2023-09-07T22:19:50.186Z,18.30
2023-09-07T22:22:17.351Z,18.20
2023-09-07T22:24:44.320Z,18.20
2023-09-07T22:27:11.223Z,18.10
2023-09-07T22:29:38.477Z,18.00
2023-09-07T22:32:05.852Z,17.90
2023-09-07T22:34:32.829Z,17.90
2023-09-07T22:37:01.423Z,17.80
2023-09-07T22:39:28.498Z,17.70
2023-09-07T22:41:55.555Z,17.70
2023-09-07T22:44:22.603Z,17.60
2023-09-07T22:46:49.764Z,17.50
2023-09-07T22:49:16.784Z,17.50
2023-09-07T22:51:44.235Z,17.40
2023-09-07T22:54:11.243Z,17.40
2023-09-07T22:56:39.182Z,17.40
2023-09-07T22:59:06.197Z,17.40
2023-09-07T23:01:33.192Z,17.30
2023-09-07T23:04:00.400Z,17.30
2023-09-07T23:06:27.685Z,17.30
2023-09-07T23:08:54.734Z,17.20
2023-09-07T23:11:21.666Z,17.20
2023-09-07T23:13:49.049Z,17.20
2023-09-07T23:16:16.448Z,17.10
2023-09-07T23:18:43.494Z,17.10
2023-09-07T23:21:10.718Z,16.90
2023-09-07T23:23:37.688Z,16.90
2023-09-07T23:26:04.608Z,16.80
2023-09-07T23:28:31.672Z,16.80
2023-09-07T23:30:59.351Z,16.80
2023-09-07T23:33:26.525Z,16.70
2023-09-07T23:35:54.491Z,16.70
2023-09-07T23:38:21.511Z,16.70
2023-09-07T23:40:48.431Z,16.70
2023-09-07T23:43:15.379Z,16.70
2023-09-07T23:45:42.343Z,16.80
2023-09-07T23:48:09.408Z,16.80
2023-09-07T23:50:36.406Z,16.80
2023-09-07T23:53:04.282Z,16.80
2023-09-07T23:55:33.078Z,16.70
2023-09-07T23:58:00.500Z,16.70
